Time;durP1;ratioP1;P1;durP2;ratioP2;P2;SDS_P1;SDS_P2;PMS_P1;PMS_P2;Temp;Humidity;BMP_temperature;BMP_pressure;BME280_temperature;BME280_humidity;BME280_pressure;Samples;Min_cycle;Max_cycle;Signal;HPM_P1;HPM_P2
2023/03/04 00:00:29;;;;;;;2.30;1.15;;;;;;;5.97;73.41;102638.59;5030112;28;20053;-46
2023/03/04 00:02:57;;;;;;;3.58;1.08;;;;;;;5.99;73.55;102637.22;5029118;28;20061;-46
2023/03/04 00:05:24;;;;;;;2.50;1.23;;;;;;;5.99;73.65;102641.88;5029819;28;20056;-46
2023/03/04 00:07:50;;;;;;;3.47;1.00;;;;;;;5.99;73.53;102630.88;5030115;28;20487;-46
2023/03/04 00:10:17;;;;;;;3.63;0.95;;;;;;;5.98;73.61;102630.06;5029826;28;20507;-47
2023/03/04 00:12:44;;;;;;;4.32;0.90;;;;;;;5.99;73.59;102623.47;5030786;28;20458;-53
2023/03/04 00:15:10;;;;;;;3.25;1.08;;;;;;;5.99;73.66;102623.47;5030319;28;20484;-47
2023/03/04 00:17:37;;;;;;;6.38;0.98;;;;;;;5.98;73.80;102618.25;5030132;28;20049;-46
2023/03/04 00:20:04;;;;;;;4.63;1.38;;;;;;;5.99;73.69;102630.88;5021512;28;20407;-46
2023/03/04 00:22:32;;;;;;;7.15;2.15;;;;;;;5.96;73.90;102618.50;5029862;28;20438;-46
2023/03/04 00:24:59;;;;;;;3.20;0.90;;;;;;;5.92;73.70;102613.81;5016910;28;20034;-47
2023/03/04 00:27:25;;;;;;;4.75;1.10;;;;;;;5.89;73.82;102626.19;5029520;28;20381;-47
2023/03/04 00:29:52;;;;;;;3.63;0.80;;;;;;;5.90;74.03;102621.53;5030454;28;20052;-48
2023/03/04 00:32:18;;;;;;;2.95;1.00;;;;;;;5.90;73.96;102622.34;5029549;28;20045;-47
2023/03/04 00:34:45;;;;;;;6.38;0.70;;;;;;;5.91;73.94;102625.91;5029533;28;20121;-46
2023/03/04 00:37:12;;;;;;;2.88;0.82;;;;;;;5.90;73.73;102625.09;5029200;28;20158;-49
2023/03/04 00:39:39;;;;;;;5.65;1.58;;;;;;;5.90;73.80;102614.09;5011951;28;20049;-46
2023/03/04 00:42:05;;;;;;;4.05;1.45;;;;;;;5.90;73.67;102616.84;5029507;28;20049;-47
2023/03/04 00:44:32;;;;;;;3.25;0.88;;;;;;;5.90;73.83;102610.53;5029296;28;20496;-46
2023/03/04 00:46:59;;;;;;;3.58;0.93;;;;;;;5.90;73.94;102616.03;5029860;28;20049;-47
2023/03/04 00:49:25;;;;;;;5.25;1.27;;;;;;;5.91;73.82;102613.00;5025115;28;20073;-46
2023/03/04 00:51:53;;;;;;;4.07;1.40;;;;;;;5.90;73.65;102605.03;5028656;28;20057;-47
2023/03/04 00:54:20;;;;;;;5.57;1.17;;;;;;;5.90;73.73;102610.53;5029230;28;20038;-47
2023/03/04 00:56:49;;;;;;;6.78;1.25;;;;;;;5.92;73.89;102611.06;5028794;28;20466;-49
2023/03/04 00:59:15;;;;;;;4.45;0.98;;;;;;;5.89;73.61;102608.84;5029036;28;20124;-46
2023/03/04 01:01:42;;;;;;;4.53;0.95;;;;;;;5.88;73.68;102601.69;5029044;28;20057;-48
2023/03/04 01:04:10;;;;;;;5.93;1.35;;;;;;;5.87;73.67;102597.31;5029726;28;20135;-46
2023/03/04 01:06:36;;;;;;;2.88;0.80;;;;;;;5.85;73.94;102596.75;5028674;28;20064;-46
2023/03/04 01:09:03;;;;;;;2.92;1.10;;;;;;;5.84;73.92;102600.56;5029216;28;20056;-47
2023/03/04 01:11:30;;;;;;;4.93;1.45;;;;;;;5.84;73.92;102606.06;5028974;28;20516;-47
2023/03/04 01:13:56;;;;;;;4.47;1.05;;;;;;;5.83;73.79;102604.38;5029028;28;20526;-51
2023/03/04 01:16:23;;;;;;;2.33;0.73;;;;;;;5.81;73.98;102609.34;5029128;28;20403;-52
2023/03/04 01:18:50;;;;;;;2.40;0.85;;;;;;;5.81;73.82;102607.44;5028726;28;20053;-50
2023/03/04 01:21:17;;;;;;;5.80;1.00;;;;;;;5.81;74.03;102614.84;5028965;28;20128;-46
2023/03/04 01:23:43;;;;;;;6.75;0.90;;;;;;;5.80;73.96;102616.75;5011640;28;20046;-48
2023/03/04 01:26:10;;;;;;;2.88;0.98;;;;;;;5.80;74.17;102605.75;5028803;28;20053;-46
2023/03/04 01:28:37;;;;;;;4.88;0.90;;;;;;;5.80;73.92;102619.50;5029367;28;20156;-51
2023/03/04 01:31:03;;;;;;;4.45;1.10;;;;;;;5.81;73.95;102612.91;5028779;28;20056;-48
2023/03/04 01:33:30;;;;;;;6.65;1.83;;;;;;;5.82;73.76;102619.25;5028985;28;20046;-46
2023/03/04 01:35:57;;;;;;;4.18;1.15;;;;;;;5.79;73.85;102615.13;5028783;28;20049;-52
2023/03/04 01:38:24;;;;;;;4.75;0.98;;;;;;;5.79;73.88;102619.78;5029386;28;20060;-46
2023/03/04 01:40:51;;;;;;;4.25;1.05;;;;;;;5.78;73.78;102624.44;5028718;28;20057;-48
2023/03/04 01:43:22;;;;;;;5.15;1.38;;;;;;;5.80;73.85;102621.44;5029149;28;20084;-46
2023/03/04 01:45:50;;;;;;;6.45;1.15;;;;;;;5.80;73.74;102618.69;5028425;28;20087;-47
2023/03/04 01:48:23;;;;;;;4.68;2.28;;;;;;;5.81;73.55;102612.09;5028808;28;20049;-52
2023/03/04 01:50:50;;;;;;;3.65;1.00;;;;;;;5.80;73.59;102608.50;5028134;28;20521;-49
2023/03/04 01:53:21;;;;;;;4.57;1.10;;;;;;;5.80;73.53;102618.69;5028756;28;20052;-46
2023/03/04 01:55:48;;;;;;;4.32;0.88;;;;;;;5.78;73.72;102618.13;5029187;28;20065;-46
2023/03/04 01:58:15;;;;;;;4.28;0.90;;;;;;;5.78;73.50;102609.88;5028436;28;20045;-47
2023/03/04 02:00:42;;;;;;;5.75;1.60;;;;;;;5.78;73.36;102612.63;5028582;28;20403;-46
2023/03/04 02:03:14;;;;;;;4.05;1.13;;;;;;;5.75;73.37;102613.16;5010746;28;20053;-49
2023/03/04 02:05:44;;;;;;;3.75;1.70;;;;;;;5.69;73.61;102609.56;5028438;28;20414;-47
2023/03/04 02:08:13;;;;;;;9.73;2.00;;;;;;;5.70;73.56;102604.88;5010481;28;20137;-47
2023/03/04 02:10:42;;;;;;;9.35;1.80;;;;;;;5.69;73.48;102603.25;5028440;28;20107;-46
2023/03/04 02:13:10;;;;;;;5.38;1.65;;;;;;;5.69;73.65;102597.75;5028383;28;20065;-47
2023/03/04 02:15:36;;;;;;;3.30;1.40;;;;;;;5.66;73.42;102604.59;5028274;28;20044;-46
2023/03/04 02:18:13;;;;;;;5.60;1.15;;;;;;;5.64;73.75;102603.22;5028483;28;20064;-46
2023/03/04 02:20:50;;;;;;;7.47;2.92;;;;;;;5.61;73.69;102601.00;5024456;28;20069;-47
2023/03/04 02:23:36;;;;;;;7.45;1.50;;;;;;;5.60;73.79;102602.09;5028185;28;20037;-47
2023/03/04 02:26:18;;;;;;;4.55;1.65;;;;;;;5.56;73.75;102595.50;5011551;28;20100;-47
2023/03/04 02:28:47;;;;;;;5.63;1.67;;;;;;;5.54;73.91;102591.06;5032740;28;20491;-50
2023/03/04 02:31:36;;;;;;;6.82;1.98;;;;;;;5.52;73.67;102598.75;5031508;28;20514;-46
2023/03/04 02:34:10;;;;;;;3.67;1.63;;;;;;;5.52;74.16;102587.78;5032009;28;20103;-46
2023/03/04 02:36:37;;;;;;;3.35;2.00;;;;;;;5.51;74.13;102583.38;5031925;28;20044;-46
2023/03/04 02:39:14;;;;;;;3.50;1.88;;;;;;;5.49;74.08;102582.81;5031796;28;20045;-46
2023/03/04 02:41:41;;;;;;;3.53;1.38;;;;;;;5.51;74.07;102593.53;5032405;28;20053;-47
2023/03/04 02:44:19;;;;;;;5.55;1.42;;;;;;;5.50;74.46;102583.63;5031801;28;20067;-47
2023/03/04 02:46:46;;;;;;;3.42;1.45;;;;;;;5.53;74.19;102583.13;5032205;28;20063;-48
2023/03/04 02:49:13;;;;;;;2.45;1.38;;;;;;;5.51;74.42;102583.38;5031414;28;20466;-47
2023/03/04 02:51:40;;;;;;;5.63;1.73;;;;;;;5.51;74.21;102590.78;5031702;28;20060;-51
2023/03/04 02:54:21;;;;;;;4.80;1.65;;;;;;;5.49;74.39;102582.81;5031562;28;20050;-47
2023/03/04 02:56:49;;;;;;;2.88;1.80;;;;;;;5.48;74.50;102589.38;5013788;28;20420;-46
2023/03/04 02:59:17;;;;;;;4.85;2.03;;;;;;;5.45;74.48;102587.16;5031303;28;20049;-46
2023/03/04 03:01:44;;;;;;;2.00;1.75;;;;;;;5.44;74.49;102585.53;4935484;23;20152;-46
2023/03/04 03:04:11;;;;;;;7.88;2.25;;;;;;;5.38;74.07;102586.59;5032077;28;20453;-46
2023/03/04 03:06:39;;;;;;;7.60;2.17;;;;;;;5.36;74.30;102591.53;5030238;28;20563;-46
2023/03/04 03:09:07;;;;;;;7.97;2.92;;;;;;;5.36;74.67;102588.78;5031717;28;20057;-53
2023/03/04 03:11:34;;;;;;;6.20;2.08;;;;;;;5.34;74.37;102587.38;5030805;28;20491;-48
2023/03/04 03:14:00;;;;;;;3.25;2.17;;;;;;;5.34;74.76;102590.13;5030099;28;20411;-50
2023/03/04 03:16:28;;;;;;;7.30;1.88;;;;;;;5.32;74.43;102590.38;5031314;28;20045;-46
2023/03/04 03:18:55;;;;;;;2.83;2.00;;;;;;;5.32;74.49;102584.88;5031063;28;20045;-50
2023/03/04 03:21:21;;;;;;;5.15;1.70;;;;;;;5.31;74.34;102594.25;5031279;28;20049;-49
2023/03/04 03:23:49;;;;;;;3.63;2.25;;;;;;;5.28;74.16;102588.44;5031040;28;20118;-46
2023/03/04 03:26:16;;;;;;;5.72;2.67;;;;;;;5.27;74.14;102584.06;5030996;28;20277;-47
2023/03/04 03:28:43;;;;;;;4.35;2.03;;;;;;;5.26;74.58;102583.22;5031019;28;20057;-47
2023/03/04 03:31:10;;;;;;;2.65;1.92;;;;;;;5.25;74.40;102586.22;5030835;28;20041;-47
2023/03/04 03:33:36;;;;;;;5.55;1.95;;;;;;;5.24;74.44;102582.63;5029806;28;20454;-48
2023/03/04 03:36:04;;;;;;;7.10;1.70;;;;;;;5.24;74.42;102579.91;5030532;28;20513;-48
2023/03/04 03:38:31;;;;;;;8.13;2.20;;;;;;;5.22;74.44;102579.34;5030239;28;20491;-46
2023/03/04 03:40:57;;;;;;;6.72;1.50;;;;;;;5.20;74.27;102577.94;5030332;28;20411;-47
2023/03/04 03:43:24;;;;;;;8.73;2.97;;;;;;;5.16;74.44;102574.09;5030821;28;20477;-46
2023/03/04 03:45:50;;;;;;;4.50;1.70;;;;;;;5.16;73.99;102574.09;5030357;28;20048;-48
2023/03/04 03:48:17;;;;;;;3.63;1.92;;;;;;;5.18;74.31;102574.66;5030359;28;20461;-46
2023/03/04 03:50:59;;;;;;;5.80;2.50;;;;;;;5.19;74.53;102566.13;5017268;28;20049;-48
2023/03/04 03:53:25;;;;;;;3.40;1.85;;;;;;;5.20;74.46;102566.97;5024893;28;20049;-47
2023/03/04 03:55:52;;;;;;;4.57;2.10;;;;;;;5.21;74.23;102569.47;5030482;28;20057;-46
2023/03/04 03:58:19;;;;;;;4.50;2.13;;;;;;;5.20;74.39;102573.28;5030365;28;20502;-48
2023/03/04 04:00:45;;;;;;;3.55;2.25;;;;;;;5.16;74.53;102569.44;5029270;28;20517;-49
2023/03/04 04:03:14;;;;;;;3.60;1.90;;;;;;;5.16;74.53;102563.94;5010653;28;20081;-50
2023/03/04 04:05:41;;;;;;;4.50;2.03;;;;;;;5.15;74.64;102565.03;5010923;28;20050;-48
2023/03/04 04:08:17;;;;;;;7.63;1.95;;;;;;;5.13;74.40;102561.72;5010298;28;20049;-49
2023/03/04 04:10:44;;;;;;;4.28;2.30;;;;;;;5.14;74.46;102570.75;5010955;28;20049;-48
2023/03/04 04:13:10;;;;;;;3.22;2.22;;;;;;;5.14;74.11;102566.09;5010263;28;20664;-48
2023/03/04 04:15:38;;;;;;;5.88;2.00;;;;;;;5.14;74.26;102568.03;5010715;28;20084;-48
2023/03/04 04:18:06;;;;;;;6.38;2.10;;;;;;;5.10;74.49;102562.25;5010114;28;20042;-47
2023/03/04 04:20:33;;;;;;;8.82;2.65;;;;;;;5.11;74.53;102569.38;5010196;28;20058;-47
2023/03/04 04:22:59;;;;;;;5.70;2.72;;;;;;;5.11;74.48;102572.13;5000879;28;20030;-47
2023/03/04 04:25:26;;;;;;;6.30;2.03;;;;;;;5.09;74.52;102577.06;5010592;28;20048;-48
2023/03/04 04:27:53;;;;;;;4.50;1.75;;;;;;;5.09;74.67;102576.22;5010380;28;20487;-48
2023/03/04 04:30:19;;;;;;;8.40;2.28;;;;;;;5.09;74.32;102582.56;5010116;28;20476;-51
2023/03/04 04:32:46;;;;;;;5.07;2.30;;;;;;;5.09;74.31;102565.25;5010163;28;20483;-47
2023/03/04 04:35:13;;;;;;;3.90;2.28;;;;;;;5.06;74.27;102569.34;5010236;28;20049;-48
2023/03/04 04:37:39;;;;;;;5.32;2.05;;;;;;;5.06;74.52;102571.25;5010182;28;20069;-49
2023/03/04 04:40:07;;;;;;;5.55;2.85;;;;;;;5.06;74.51;102561.09;4992347;28;20508;-55
2023/03/04 04:42:34;;;;;;;5.90;3.00;;;;;;;5.08;74.67;102575.44;5010075;28;20499;-48
2023/03/04 04:45:01;;;;;;;3.85;1.65;;;;;;;5.08;74.65;102574.59;4992933;28;20387;-48
2023/03/04 04:47:28;;;;;;;4.53;2.00;;;;;;;5.06;74.62;102571.25;5009765;28;20042;-49
2023/03/04 04:49:55;;;;;;;6.13;1.85;;;;;;;5.04;74.30;102570.69;5009539;28;20038;-47
2023/03/04 04:52:21;;;;;;;3.20;1.90;;;;;;;5.05;74.58;102564.97;5009761;28;21891;-48
2023/03/04 04:54:48;;;;;;;2.40;2.05;;;;;;;5.03;74.40;102572.63;5009847;28;21038;-48
2023/03/04 04:57:15;;;;;;;4.20;2.30;;;;;;;5.02;74.67;102578.38;5009039;28;20491;-49
2023/03/04 04:59:41;;;;;;;3.28;2.10;;;;;;;5.01;74.48;102574.81;5009529;28;20195;-50
2023/03/04 05:02:08;;;;;;;3.72;2.10;;;;;;;5.02;74.62;102576.47;5009843;28;20053;-49
2023/03/04 05:04:35;;;;;;;3.60;2.60;;;;;;;5.03;74.67;102571.81;5009507;28;20403;-53
2023/03/04 05:07:01;;;;;;;4.88;2.50;;;;;;;5.02;74.75;102576.47;5009144;28;20042;-46
2023/03/04 05:09:28;;;;;;;3.45;2.40;;;;;;;5.00;74.42;102584.16;5009472;28;20053;-51
2023/03/04 05:11:55;;;;;;;3.08;2.20;;;;;;;4.99;74.68;102571.50;5009531;28;20038;-51
2023/03/04 05:14:21;;;;;;;7.53;2.53;;;;;;;5.00;74.48;102577.81;5009347;28;20046;-53
2023/03/04 05:16:48;;;;;;;4.15;2.55;;;;;;;4.98;74.69;102577.28;5009132;28;20080;-47
2023/03/04 05:19:15;;;;;;;7.93;2.40;;;;;;;4.98;74.45;102575.31;5010323;28;20046;-47
2023/03/04 05:21:41;;;;;;;3.38;2.60;;;;;;;5.01;74.59;102583.03;5009220;28;20050;-46
2023/03/04 05:24:08;;;;;;;6.45;2.40;;;;;;;5.00;74.48;102578.66;5000686;28;20049;-47
2023/03/04 05:26:35;;;;;;;5.43;2.53;;;;;;;4.99;74.54;102579.72;5008613;28;20049;-47
2023/03/04 05:29:02;;;;;;;3.95;2.17;;;;;;;4.97;74.52;102570.94;5008953;28;20587;-53
2023/03/04 05:31:29;;;;;;;5.90;2.63;;;;;;;4.98;74.77;102580.81;5009398;28;20042;-47
2023/03/04 05:33:56;;;;;;;4.53;2.35;;;;;;;4.98;74.82;102583.56;5009558;28;20183;-47
2023/03/04 05:36:23;;;;;;;5.13;2.63;;;;;;;4.97;74.34;102590.16;5009313;28;20136;-55
2023/03/04 05:38:49;;;;;;;6.03;2.30;;;;;;;4.95;74.60;102589.56;5009007;28;20052;-51
2023/03/04 05:41:19;;;;;;;4.07;2.58;;;;;;;4.95;74.51;102586.81;5009080;28;20042;-55
2023/03/04 05:43:45;;;;;;;5.03;3.33;;;;;;;4.93;74.74;102584.34;5008684;28;20042;-54
2023/03/04 05:46:14;;;;;;;4.50;3.25;;;;;;;4.94;74.46;102587.94;5008564;28;20046;-50
2023/03/04 05:48:41;;;;;;;4.57;2.97;;;;;;;4.94;74.33;102590.69;5008866;28;20072;-51
2023/03/04 05:51:08;;;;;;;4.93;3.08;;;;;;;4.93;74.57;102589.00;5008944;28;20057;-50
2023/03/04 05:53:39;;;;;;;3.92;3.33;;;;;;;4.91;74.34;102586.53;5009239;28;20096;-49
2023/03/04 05:56:09;;;;;;;10.35;3.72;;;;;;;4.89;74.34;102588.72;5008527;28;20546;-48
2023/03/04 05:58:37;;;;;;;4.65;3.50;;;;;;;4.88;74.11;102578.00;5008364;28;20054;-47
2023/03/04 06:01:03;;;;;;;7.32;3.83;;;;;;;4.88;74.27;102591.72;5010201;28;20072;-46
2023/03/04 06:03:31;;;;;;;5.10;3.38;;;;;;;4.87;74.36;102584.59;5012790;28;20046;-48
2023/03/04 06:06:00;;;;;;;10.32;6.13;;;;;;;4.88;74.01;102586.22;5012939;28;20495;-47
2023/03/04 06:08:26;;;;;;;14.27;7.00;;;;;;;4.89;73.79;102587.91;5012562;28;20042;-53
2023/03/04 06:10:55;;;;;;;8.65;5.07;;;;;;;4.89;74.04;102596.13;5013433;28;20054;-48
2023/03/04 06:13:22;;;;;;;7.80;5.30;;;;;;;4.87;74.15;102590.09;5012454;28;20500;-46
2023/03/04 06:15:58;;;;;;;10.27;5.55;;;;;;;4.87;73.69;102587.34;5012577;28;20073;-53
2023/03/04 06:18:28;;;;;;;7.30;5.45;;;;;;;4.88;73.91;102588.97;5012769;28;20472;-48
2023/03/04 06:21:00;;;;;;;8.98;5.78;;;;;;;4.89;74.08;102594.22;5012351;28;20096;-50
2023/03/04 06:23:27;;;;;;;8.73;6.07;;;;;;;4.89;74.02;102594.22;5009671;28;20879;-47
2023/03/04 06:25:55;;;;;;;10.55;7.03;;;;;;;4.86;73.80;102605.72;5006767;28;20064;-49
2023/03/04 06:28:23;;;;;;;10.57;7.47;;;;;;;4.84;73.96;102601.59;5012709;28;20079;-48
2023/03/04 06:30:54;;;;;;;9.52;6.70;;;;;;;4.82;73.67;102598.25;5012240;28;20046;-47
2023/03/04 06:33:21;;;;;;;11.75;7.78;;;;;;;4.82;73.78;102599.09;5012285;28;20042;-46
2023/03/04 06:35:53;;;;;;;12.25;7.82;;;;;;;4.82;73.40;102598.25;5012255;28;20049;-48
2023/03/04 06:38:20;;;;;;;10.48;8.02;;;;;;;4.81;73.72;102602.09;5011973;28;20586;-47
2023/03/04 06:40:47;;;;;;;10.77;7.28;;;;;;;4.81;73.43;102591.97;5011728;28;20136;-46
2023/03/04 06:43:13;;;;;;;13.05;8.20;;;;;;;4.83;73.37;102595.25;4994718;28;20042;-53
2023/03/04 06:45:40;;;;;;;12.85;8.05;;;;;;;4.81;73.50;102591.13;5014528;28;20038;-48
2023/03/04 06:48:07;;;;;;;14.35;8.90;;;;;;;4.80;73.46;102592.19;5011930;28;20475;-48
2023/03/04 06:50:33;;;;;;;11.57;7.80;;;;;;;4.81;73.45;102597.44;5011685;28;20446;-48
2023/03/04 06:53:00;;;;;;;12.48;8.63;;;;;;;4.81;73.32;102593.88;5004272;28;20590;-47
2023/03/04 06:55:27;;;;;;;10.93;8.50;;;;;;;4.77;73.36;102603.69;5008703;28;20050;-47
2023/03/04 06:57:53;;;;;;;13.23;9.27;;;;;;;4.77;73.36;102600.94;4967965;28;20069;-53
2023/03/04 07:00:22;;;;;;;13.43;9.52;;;;;;;4.76;73.24;102602.88;5009355;28;20435;-48
2023/03/04 07:02:50;;;;;;;14.98;9.85;;;;;;;4.76;73.27;102594.66;5011474;28;20069;-50
2023/03/04 07:05:19;;;;;;;14.13;10.38;;;;;;;4.76;73.41;102600.16;5011670;28;20052;-47
2023/03/04 07:07:47;;;;;;;11.45;9.15;;;;;;;4.76;73.29;102596.56;5011607;28;20092;-46
2023/03/04 07:10:14;;;;;;;17.67;10.20;;;;;;;4.74;73.02;102599.56;5011346;28;20131;-48
2023/03/04 07:12:40;;;;;;;14.52;9.70;;;;;;;4.72;73.31;102595.41;5011221;28;20054;-48
2023/03/04 07:15:08;;;;;;;18.35;12.48;;;;;;;4.74;73.00;102601.47;5011443;28;20060;-47
2023/03/04 07:17:35;;;;;;;15.18;9.35;;;;;;;4.71;73.18;102597.34;5012100;28;20520;-48
2023/03/04 07:20:02;;;;;;;15.80;10.68;;;;;;;4.70;72.99;102589.38;5011061;28;20052;-46
2023/03/04 07:22:29;;;;;;;15.50;9.38;;;;;;;4.71;73.35;102596.53;5011325;28;20046;-48
2023/03/04 07:24:55;;;;;;;15.93;10.38;;;;;;;4.71;72.92;102593.78;5002630;28;20145;-46
2023/03/04 07:27:23;;;;;;;16.13;10.68;;;;;;;4.72;72.96;102599.00;5011048;28;20132;-48
2023/03/04 07:29:49;;;;;;;16.20;10.15;;;;;;;4.74;73.29;102595.97;4998365;28;20061;-50
2023/03/04 07:32:16;;;;;;;15.70;10.60;;;;;;;4.74;73.33;102599.56;5011097;28;20180;-47
2023/03/04 07:34:43;;;;;;;15.32;11.00;;;;;;;4.75;72.97;102594.91;5011626;28;20061;-47
2023/03/04 07:37:09;;;;;;;15.13;10.80;;;;;;;4.76;73.08;102604.81;5010995;28;20463;-47
2023/03/04 07:39:36;;;;;;;18.95;11.13;;;;;;;4.75;73.14;102603.13;5011200;28;20054;-48
2023/03/04 07:42:03;;;;;;;16.17;10.35;;;;;;;4.75;72.91;102603.97;5010940;28;20165;-47
2023/03/04 07:44:30;;;;;;;16.60;11.25;;;;;;;4.75;73.05;102614.13;5010940;28;20042;-48
2023/03/04 07:46:56;;;;;;;18.17;12.45;;;;;;;4.75;72.94;102600.41;5010823;28;20045;-48
2023/03/04 07:49:23;;;;;;;18.23;11.57;;;;;;;4.75;72.90;102603.97;5010919;28;20046;-49
2023/03/04 07:51:49;;;;;;;20.90;11.02;;;;;;;4.80;72.87;102605.91;5011511;28;20061;-48
2023/03/04 07:54:19;;;;;;;17.30;11.82;;;;;;;4.80;72.88;102611.41;4999533;28;20058;-51
2023/03/04 07:56:45;;;;;;;17.65;11.90;;;;;;;4.81;73.06;102604.84;5004743;28;20411;-49
2023/03/04 07:59:12;;;;;;;17.77;11.38;;;;;;;4.82;72.97;102606.47;5010818;28;20045;-47
2023/03/04 08:01:39;;;;;;;19.98;11.95;;;;;;;4.84;72.83;102618.03;5010713;28;20058;-49
2023/03/04 08:04:06;;;;;;;16.48;11.60;;;;;;;4.84;72.82;102618.84;5010630;28;20096;-48
2023/03/04 08:06:34;;;;;;;18.48;12.40;;;;;;;4.84;73.03;102618.03;5010382;28;21130;-48
2023/03/04 08:09:04;;;;;;;17.08;11.93;;;;;;;4.83;72.79;102619.13;5010721;28;20092;-49
2023/03/04 08:11:32;;;;;;;16.42;11.68;;;;;;;4.83;73.13;102621.88;5009761;28;20052;-46
2023/03/04 08:13:58;;;;;;;21.65;13.57;;;;;;;4.85;72.78;102625.16;5010545;28;20046;-48
2023/03/04 08:16:25;;;;;;;16.83;11.68;;;;;;;4.87;72.60;102628.50;5010687;28;20045;-46
2023/03/04 08:18:55;;;;;;;17.67;11.35;;;;;;;4.90;72.98;102633.44;5010536;28;20038;-46
2023/03/04 08:21:23;;;;;;;20.90;11.52;;;;;;;4.89;72.81;102632.63;5009866;28;20046;-50
2023/03/04 08:23:50;;;;;;;16.33;10.80;;;;;;;4.90;73.05;102633.44;5004051;28;20056;-49
2023/03/04 08:26:30;;;;;;;14.52;10.88;;;;;;;4.87;72.49;102634.00;5008303;28;20411;-49
2023/03/04 08:28:56;;;;;;;19.08;10.70;;;;;;;4.85;72.64;102636.16;5009795;28;20412;-48
2023/03/04 08:31:23;;;;;;;17.38;11.52;;;;;;;4.85;72.73;102641.63;5008443;28;20157;-51
2023/03/04 08:33:51;;;;;;;15.23;9.95;;;;;;;4.86;72.63;102641.41;5009768;28;20432;-46
2023/03/04 08:36:19;;;;;;;20.88;13.63;;;;;;;4.89;72.72;102637.28;5010202;28;20045;-47
2023/03/04 08:38:45;;;;;;;16.67;11.57;;;;;;;4.88;72.60;102635.63;5009335;28;20060;-50
2023/03/04 08:41:14;;;;;;;15.60;11.05;;;;;;;4.88;72.75;102630.97;5010051;28;20408;-51
2023/03/04 08:43:41;;;;;;;19.15;10.48;;;;;;;4.89;72.52;102629.91;5009991;28;20049;-46
2023/03/04 08:46:08;;;;;;;17.58;11.10;;;;;;;4.94;72.80;102623.63;5009969;28;20137;-46
2023/03/04 08:48:36;;;;;;;18.10;10.52;;;;;;;4.93;72.67;102621.94;5009595;28;20451;-51
2023/03/04 08:51:10;;;;;;;18.13;9.85;;;;;;;4.94;72.40;102623.63;5009766;28;20048;-48
2023/03/04 08:53:37;;;;;;;15.40;10.82;;;;;;;4.93;72.81;102617.28;5009538;28;20045;-49
2023/03/04 08:56:06;;;;;;;15.50;10.68;;;;;;;4.95;72.46;102619.75;4998824;28;20153;-45
2023/03/04 08:58:33;;;;;;;14.57;10.13;;;;;;;4.95;72.30;102625.25;5009642;28;20156;-49
2023/03/04 09:01:01;;;;;;;15.27;10.50;;;;;;;4.95;72.29;102624.44;5009932;28;20515;-47
2023/03/04 09:03:27;;;;;;;16.77;10.80;;;;;;;4.95;72.37;102618.97;5009230;28;20083;-48
2023/03/04 09:05:55;;;;;;;11.73;9.45;;;;;;;4.98;72.38;102624.72;5009677;28;20050;-49
2023/03/04 09:08:21;;;;;;;13.90;10.68;;;;;;;5.02;72.16;102617.66;5009689;28;20045;-48
2023/03/04 09:10:52;;;;;;;13.30;10.85;;;;;;;5.03;71.93;102616.53;5009567;28;20092;-47
2023/03/04 09:13:19;;;;;;;17.20;10.43;;;;;;;5.00;72.14;102622.56;5008740;28;20050;-49
2023/03/04 09:15:47;;;;;;;14.10;10.02;;;;;;;5.03;72.00;102618.47;5009441;28;20054;-48
2023/03/04 09:18:15;;;;;;;21.10;12.30;;;;;;;5.05;71.78;102619.88;5010058;28;20071;-46
2023/03/04 09:20:44;;;;;;;15.60;9.52;;;;;;;5.05;71.93;102616.28;5009265;28;20054;-47
2023/03/04 09:23:11;;;;;;;19.20;10.70;;;;;;;5.04;71.80;102606.38;5008527;28;20037;-47
2023/03/04 09:25:39;;;;;;;18.02;9.95;;;;;;;5.06;71.65;102610.53;5000748;28;20042;-46
2023/03/04 09:28:06;;;;;;;16.08;10.10;;;;;;;5.08;71.55;102611.13;5008960;28;20048;-46
2023/03/04 09:30:34;;;;;;;17.27;10.50;;;;;;;5.09;71.49;102618.22;5009000;28;20500;-46
2023/03/04 09:33:01;;;;;;;21.88;9.95;;;;;;;5.06;71.40;102621.50;5009122;28;20045;-45
2023/03/04 09:35:29;;;;;;;14.32;10.40;;;;;;;5.11;71.66;102618.00;5008632;28;20116;-47
2023/03/04 09:37:56;;;;;;;16.10;9.50;;;;;;;5.15;71.53;102619.94;5009109;28;20626;-48
2023/03/04 09:40:46;;;;;;;18.85;10.73;;;;;;;5.19;71.43;102614.75;5009111;28;20367;-49
2023/03/04 09:43:22;;;;;;;15.63;9.18;;;;;;;5.22;71.12;102626.03;4998898;28;20503;-48
2023/03/04 09:45:54;;;;;;;13.02;9.82;;;;;;;5.22;71.04;102615.03;5008965;28;20037;-46
2023/03/04 09:48:27;;;;;;;12.30;8.25;;;;;;;5.23;71.18;102627.69;5008735;28;20038;-50
2023/03/04 09:51:21;;;;;;;14.07;10.05;;;;;;;5.21;70.76;102629.88;5009424;28;20396;-46
2023/03/04 09:53:56;;;;;;;16.17;9.07;;;;;;;5.18;70.82;102627.66;5007281;28;20471;-50
2023/03/04 09:56:24;;;;;;;14.43;9.13;;;;;;;5.18;70.79;102627.66;5001642;28;20527;-50
2023/03/04 09:59:23;;;;;;;14.15;8.93;;;;;;;5.21;70.47;102626.31;5008516;28;20400;-49
2023/03/04 10:01:56;;;;;;;17.08;9.30;;;;;;;5.20;70.56;102624.63;5008429;28;20097;-46
2023/03/04 10:04:38;;;;;;;16.55;11.18;;;;;;;5.19;70.40;102629.28;5008793;28;20049;-47
2023/03/04 10:07:16;;;;;;;13.02;9.00;;;;;;;5.21;70.39;102623.56;5008672;28;20408;-47
2023/03/04 10:09:52;;;;;;;12.95;8.35;;;;;;;5.22;70.20;102623.28;5013564;28;20514;-53
2023/03/04 10:12:23;;;;;;;12.25;8.48;;;;;;;5.24;70.34;102621.09;5008887;28;20217;-48
2023/03/04 10:14:59;;;;;;;15.38;8.32;;;;;;;5.27;69.90;102617.81;5008584;28;20046;-47
2023/03/04 10:17:38;;;;;;;14.75;8.77;;;;;;;5.26;70.00;102616.19;5008456;28;20046;-50
2023/03/04 10:20:17;;;;;;;17.33;8.57;;;;;;;5.26;69.75;102627.16;5008505;28;20056;-47
2023/03/04 10:22:55;;;;;;;14.73;8.65;;;;;;;5.28;70.27;102616.75;4991034;28;20080;-47
2023/03/04 10:25:26;;;;;;;13.63;8.70;;;;;;;5.31;69.85;102613.47;5008428;28;20052;-47
2023/03/04 10:28:01;;;;;;;10.60;7.75;;;;;;;5.32;69.90;102615.09;5008110;28;20054;-53
2023/03/04 10:30:50;;;;;;;12.68;8.32;;;;;;;5.33;69.51;102608.53;5008910;28;20046;-47
2023/03/04 10:33:19;;;;;;;11.32;7.53;;;;;;;5.34;69.89;102620.34;4998104;28;20060;-46
2023/03/04 10:35:52;;;;;;;11.07;7.80;;;;;;;5.32;69.77;102615.09;5008298;28;20042;-46
2023/03/04 10:38:20;;;;;;;16.20;8.27;;;;;;;5.33;69.49;102618.69;5008414;28;20493;-47
2023/03/04 10:40:47;;;;;;;11.30;6.50;;;;;;;5.36;69.77;102615.41;5008327;28;20503;-49
2023/03/04 10:43:19;;;;;;;13.43;6.90;;;;;;;5.35;69.64;102609.09;5008757;28;20046;-46
2023/03/04 10:45:47;;;;;;;12.07;6.35;;;;;;;5.35;69.55;102605.50;5008309;28;20482;-48
2023/03/04 10:48:27;;;;;;;12.00;7.40;;;;;;;5.35;69.36;102603.59;5011508;28;20056;-46
2023/03/04 10:51:18;;;;;;;10.93;7.05;;;;;;;5.37;69.19;102597.84;5011925;28;20050;-49
2023/03/04 10:53:47;;;;;;;14.02;7.40;;;;;;;5.37;69.42;102595.09;5011897;28;20042;-51
2023/03/04 10:56:34;;;;;;;10.82;6.53;;;;;;;5.38;69.24;102592.06;5011819;28;20069;-49
2023/03/04 10:59:38;;;;;;;9.65;6.00;;;;;;;5.42;69.33;102592.38;5017640;28;20445;-48
2023/03/04 11:02:16;;;;;;;11.65;6.60;;;;;;;5.48;69.28;102585.84;4980513;28;20068;-47
2023/03/04 11:04:56;;;;;;;13.32;6.32;;;;;;;5.50;69.34;102584.47;5011900;28;20046;-46
2023/03/04 11:07:25;;;;;;;11.48;5.70;;;;;;;5.50;69.05;102589.97;5012291;28;20129;-46
2023/03/04 11:09:52;;;;;;;9.95;5.80;;;;;;;5.53;69.18;102578.41;5011703;28;20148;-48
2023/03/04 11:12:32;;;;;;;11.52;5.40;;;;;;;5.57;69.34;102586.13;5011925;28;20068;-48
2023/03/04 11:14:59;;;;;;;10.30;5.68;;;;;;;5.59;69.09;102590.25;5011589;28;20134;-48
2023/03/04 11:17:58;;;;;;;14.40;5.68;;;;;;;5.61;69.17;102585.34;5012360;28;20042;-48
2023/03/04 11:20:28;;;;;;;13.25;6.10;;;;;;;5.61;69.17;102584.53;4994469;28;20054;-49
2023/03/04 11:22:58;;;;;;;11.95;5.80;;;;;;;5.63;68.73;102579.56;5001183;28;20112;-48
2023/03/04 11:25:29;;;;;;;10.25;5.75;;;;;;;5.63;68.83;102583.16;5013184;28;20589;-51
2023/03/04 11:28:02;;;;;;;8.35;5.40;;;;;;;5.65;69.14;102575.47;5011008;28;20057;-51
2023/03/04 11:30:43;;;;;;;12.30;6.15;;;;;;;5.66;68.47;102576.31;5010859;28;20052;-51
2023/03/04 11:33:32;;;;;;;8.98;5.53;;;;;;;5.68;68.55;102580.44;5011358;28;20060;-48
2023/03/04 11:36:09;;;;;;;8.95;5.15;;;;;;;5.70;68.75;102577.41;5010903;28;20057;-50
2023/03/04 11:38:46;;;;;;;12.23;5.93;;;;;;;5.74;68.51;102579.38;5020914;28;20044;-48